createdAt,value
2023-11-07T00:05:37.989Z,3.195
2023-11-07T00:21:21.045Z,3.195
2023-11-07T00:37:03.650Z,3.195
2023-11-07T00:52:46.023Z,3.195
2023-11-07T01:08:29.315Z,3.195
2023-11-07T01:24:11.697Z,3.195
2023-11-07T01:39:54.606Z,3.196
2023-11-07T01:55:36.990Z,3.195
2023-11-07T02:11:19.090Z,3.196
2023-11-07T02:27:01.818Z,3.196
2023-11-07T02:42:44.039Z,3.196
2023-11-07T02:58:26.700Z,3.196
2023-11-07T03:14:09.108Z,3.196
2023-11-07T03:29:51.457Z,3.196
2023-11-07T03:45:34.295Z,3.196
2023-11-07T04:01:17.024Z,3.196
2023-11-07T04:16:59.454Z,3.196
2023-11-07T04:32:42.238Z,3.196
2023-11-07T04:48:24.588Z,3.196
2023-11-07T05:04:06.355Z,3.198
2023-11-07T05:19:49.289Z,3.196
2023-11-07T05:35:32.231Z,3.198
2023-11-07T05:51:14.681Z,3.196
2023-11-07T06:06:56.919Z,3.196
2023-11-07T06:22:40.006Z,3.195
2023-11-07T06:38:22.590Z,3.196
2023-11-07T06:54:05.352Z,3.196
2023-11-07T07:09:48.191Z,3.199
2023-11-07T07:25:30.185Z,3.195
2023-11-07T07:41:12.717Z,3.198
2023-11-07T07:56:55.226Z,3.199
2023-11-07T08:12:37.602Z,3.2
2023-11-07T08:28:20.470Z,3.242
2023-11-07T08:44:03.175Z,3.44
2023-11-07T08:59:45.636Z,3.351
2023-11-07T09:15:28.643Z,3.304
2023-11-07T09:31:10.857Z,3.285
2023-11-07T09:46:53.368Z,3.271
2023-11-07T10:02:36.706Z,3.261
2023-11-07T10:18:19.368Z,3.253
2023-11-07T10:34:02.452Z,3.247
2023-11-07T10:49:45.471Z,3.241
2023-11-07T11:05:28.078Z,3.234
2023-11-07T11:21:10.896Z,3.229
2023-11-07T11:36:53.310Z,3.224
2023-11-07T11:37:40.853Z,3.213
2023-11-07T11:53:23.870Z,3.301
2023-11-07T12:09:05.742Z,3.279
2023-11-07T12:24:48.168Z,3.27
2023-11-07T12:40:30.807Z,3.26
2023-11-07T12:56:13.108Z,3.25
2023-11-07T13:11:55.684Z,3.247
2023-11-07T13:27:38.321Z,3.242
2023-11-07T13:43:20.586Z,3.239
2023-11-07T13:59:02.838Z,3.235
2023-11-07T14:14:45.147Z,3.229
2023-11-07T14:30:27.903Z,3.225
2023-11-07T14:46:10.466Z,3.216
2023-11-07T15:01:53.348Z,3.214
2023-11-07T15:17:36.247Z,3.212
2023-11-07T15:33:18.452Z,3.209
2023-11-07T15:49:00.645Z,3.207
2023-11-07T16:04:43.520Z,3.207
2023-11-07T16:20:26.040Z,3.205
2023-11-07T16:36:08.882Z,3.203
2023-11-07T16:51:51.749Z,3.202
2023-11-07T17:07:33.993Z,3.2
2023-11-07T17:23:16.726Z,3.2
2023-11-07T17:38:59.239Z,3.199
2023-11-07T17:54:42.277Z,3.198
2023-11-07T18:10:24.492Z,3.198
2023-11-07T18:26:06.661Z,3.198
2023-11-07T18:41:49.519Z,3.199
2023-11-07T18:57:31.834Z,3.203
2023-11-07T19:13:13.845Z,3.196
2023-11-07T19:28:56.872Z,3.2
2023-11-07T19:44:39.836Z,3.2
2023-11-07T20:00:22.415Z,3.199
2023-11-07T20:16:04.937Z,3.2
2023-11-07T20:31:47.808Z,3.2
2023-11-07T20:47:30.023Z,3.202
2023-11-07T21:03:12.320Z,3.202
2023-11-07T21:18:55.071Z,3.2
2023-11-07T21:34:37.708Z,3.202
2023-11-07T21:50:20.631Z,3.199
2023-11-07T22:06:03.033Z,3.199
2023-11-07T22:21:45.410Z,3.2
2023-11-07T22:37:27.582Z,3.202
2023-11-07T22:53:09.805Z,3.202
2023-11-07T23:08:52.299Z,3.199
2023-11-07T23:24:34.928Z,3.2
2023-11-07T23:40:17.510Z,3.199
2023-11-07T23:56:00.562Z,3.198
